Terminal Aerodrome Forecast
Issued by NWS Albany, NY

Home | Current Version | Previous Version | Text Only | Print | Product List | Glossary On
Versions: 1 2 3 4 5 6 7 8 9 10 11 12 13 14 15 16 17 18 19
909
FTUS41 KALY 211133
TAFGFL
TAF
KGFL 211133Z 2112/2212 00000KT P6SM SKC
      TEMPO 2112/2113 3SM BR
     FM211900 18003KT P6SM FEW250
     FM220100 00000KT P6SM FEW250
     FM220600 00000KT 2SM BR VV003=

USA.gov is the U.S. government's official web portal to all federal, state and local government web resources and services.